Latest Weather Observations for Tunnack

IDT60801

Issued at 11:01 am EDT Monday 26 January 2015 (issued every 30 minutes, with the page automatically refreshed every 10 minutes)

About weather observations | Map of weather stations | Latest weather observations for TAS | Other Formats
Station Details ID: 094195 Name: TUNNACK FIRE STATION Lat: -42.45 Lon: 147.46 Height: 461.5 m
Data from the previous 72 hours. | See also: Recent months at Tunnack
Date/Time
EDT
Temp
°C
App
Temp
°C
Dew
Point
Rel
Hum
%
Delta-T
°C
Wind Press
QNH
hPa
Press
MSL
hPa
Rain
since 9 am
mm
Dir
 
Spd
km/h
Gust
km/h
Spd
kts
Gust
kts
26/11:00am 12.4 6.4 3.1 53 4.2 W 24 39 13 21 1013.6 1012.7 0.0
26/10:30am 11.7 5.9 4.4 61 3.4 W 24 39 13 21 1013.4 1012.5 0.0
26/10:00am 10.8 4.9 3.8 62 3.2 W 24 35 13 19 1012.8 1011.8 0.0
26/09:30am 10.5 4.6 3.8 63 3.0 WSW 24 33 13 18 1012.7 1011.7 0.0
26/09:00am 10.6 5.4 3.6 62 3.2 WSW 20 28 11 15 1012.5 1011.5 0.0
26/08:30am 10.1 5.3 4.7 69 2.5 W 19 30 10 16 1012.2 1011.3 0.0
26/08:00am 9.3 4.8 4.3 71 2.3 W 17 26 9 14 1011.6 1010.7 0.0
26/07:30am 7.5 3.3 3.9 78 1.6 W 15 20 8 11 1011.3 1010.4 0.0
26/07:00am 7.3 4.6 3.9 79 1.5 WNW 7 11 4 6 1010.7 1009.7 0.0
26/06:30am 6.6 3.5 3.8 82 1.2 W 9 17 5 9 1010.3 1009.3 0.0
26/06:00am 6.5 2.3 3.7 82 1.2 W 15 26 8 14 1009.4 1008.5 0.0
26/05:30am 6.4 1.3 3.9 84 1.1 WNW 20 33 11 18 1008.6 1007.6 0.0
26/05:00am 6.0 -1.1 3.7 85 1.0 WNW 30 41 16 22 1008.0 1007.0 0.0
26/04:30am 6.1 -0.6 3.8 85 1.0 WNW 28 37 15 20 1007.7 1006.8 0.0
26/04:00am 5.4 -0.2 3.6 88 0.8 WNW 22 28 12 15 1007.4 1006.5 0.0
26/03:30am 5.7 1.0 3.2 84 1.1 W 17 24 9 13 1007.1 1006.1 0.0
26/03:00am 5.1 1.4 2.3 82 1.2 WNW 11 17 6 9 1007.1 1006.1 0.0
26/02:30am 6.2 1.9 3.4 82 1.2 WNW 15 20 8 11 1007.0 1006.0 0.0
26/02:00am 6.0 2.4 3.0 81 1.3 WNW 11 19 6 10 1006.9 1005.9 0.0
26/01:30am 6.3 3.4 2.6 77 1.6 WNW 7 13 4 7 1006.8 1005.8 0.0
26/01:00am 6.3 3.4 2.4 76 1.7 W 7 11 4 6 1006.8 1005.8 0.0
26/12:30am 6.6 3.0 2.9 77 1.6 W 11 20 6 11 1006.9 1005.9 0.0
26/12:00am 6.0 2.4 2.8 80 1.4 NW 11 20 6 11 1006.5 1005.5 0.0
 
Date/Time
EDT
Temp
°C
App
Temp
°C
Dew
Point
Rel
Hum
%
Delta-T
°C
Wind Press
QNH
hPa
Press
MSL
hPa
Rain
since 9 am
mm
Dir
 
Spd
km/h
Gust
km/h
Spd
kts
Gust
kts
25/11:30pm 5.5 2.5 1.8 77 1.5 NNW 7 9 4 5 1006.3 1005.3 0.0
25/11:00pm 6.0 3.6 2.3 77 1.6 ENE 4 9 2 5 1006.0 1005.0 0.0
25/10:30pm 6.0 3.2 1.9 75 1.7 WSW 6 13 3 7 1005.6 1004.6 0.0
25/10:00pm 6.2 0.9 2.1 75 1.7 WNW 19 28 10 15 1005.2 1004.2 0.0
25/09:30pm 6.5 0.7 2.2 74 1.8 W 22 33 12 18 1005.1 1004.1 0.0
25/09:00pm 6.7 2.2 2.4 74 1.8 W 15 26 8 14 1004.7 1003.7 0.0
25/08:30pm 7.3 2.0 3.0 74 1.9 WNW 20 33 11 18 1004.0 1003.0 0.0
25/08:00pm 8.2 2.9 3.1 70 2.2 WNW 20 35 11 19 1003.7 1002.7 0.0
25/07:30pm 9.6 3.9 2.9 63 3.0 WSW 22 41 12 22 1003.1 1002.1 0.0
25/07:00pm 9.8 5.0 2.4 60 3.2 WSW 17 30 9 16 1002.6 1001.6 0.0
25/06:30pm 12.0 6.4 3.3 55 3.9 W 22 37 12 20 1002.0 1001.0 0.0
25/06:05pm 11.9 5.2 3.4 56 3.9 W 28 50 15 27 1001.7 1000.7 0.0
25/06:00pm 12.2 6.0 4.2 58 3.7 W 26 46 14 25 1001.6 1000.5 0.0
25/05:35pm 12.0 5.0 4.0 58 3.7 W 30 48 16 26 1001.5 1000.4 0.0
25/05:30pm 12.1 4.5 3.9 57 3.8 W 33 48 18 26 1001.4 1000.3 0.0
25/05:04pm 12.1 5.2 2.3 51 4.4 W 28 50 15 27 1001.0 999.9 0.0
25/05:00pm 12.2 6.5 4.9 61 3.5 W 24 37 13 20 1001.0 999.9 0.0
25/04:30pm 9.7 1.0 3.9 67 2.6 W 39 65 21 35 1001.4 1000.3 0.0
25/04:12pm 12.6 5.8 3.3 53 4.2 W 28 50 15 27 1000.7 999.7 0.0
25/04:00pm 12.9 6.3 4.1 55 4.1 W 28 41 15 22 1000.6 999.6 0.0
25/03:49pm 12.5 6.0 4.7 59 3.7 W 28 46 15 25 1000.5 999.5 0.0
25/03:30pm 12.6 5.5 3.8 55 4.1 W 30 46 16 25 1000.1 999.1 0.0
25/03:14pm 13.7 7.0 3.8 51 4.6 W 28 48 15 26 999.7 998.6 0.0
25/03:00pm 14.9 9.4 5.7 54 4.5 W 24 44 13 24 999.7 998.6 0.0
25/02:30pm 14.4 8.7 4.7 52 4.6 W 24 39 13 21 999.6 998.5 0.0
25/02:08pm 15.6 10.6 6.6 55 4.5 W 22 46 12 25 999.4 998.3 0.0
25/02:00pm 15.2 9.7 6.0 54 4.6 W 24 39 13 21 999.4 998.3 0.0
25/01:30pm 14.2 7.9 5.6 56 4.2 WSW 28 46 15 25 999.5 998.4 0.0
25/01:00pm 15.0 7.9 3.8 47 5.3 W 30 50 16 27 999.2 998.1 0.0
25/12:59pm 14.7 8.2 4.7 51 4.8 W 28 50 15 27 999.2 998.1 0.0
25/12:30pm 14.1 8.0 4.9 54 4.4 W 26 46 14 25 999.1 998.0 0.0
25/12:12pm 14.8 8.7 6.6 58 4.1 W 28 48 15 26 999.0 997.9 0.0
25/12:00pm 13.8 7.5 5.7 58 4.0 WNW 28 44 15 24 999.1 998.0 0.0
25/11:30am 12.7 7.8 5.1 60 3.6 W 20 33 11 18 999.3 998.2 0.0
25/11:00am 11.8 5.3 6.3 69 2.7 W 30 44 16 24 999.0 997.9 0.0
25/10:30am 10.7 5.9 7.4 80 1.6 WNW 22 35 12 19 999.1 998.0 0.0
25/10:00am 9.7 6.2 8.6 93 0.6 WNW 17 28 9 15 999.0 997.9 0.0
25/09:30am 9.4 6.8 9.3 99 0.1 W 13 24 7 13 998.9 997.8 0.0
25/09:00am 9.1 6.0 9.0 99 0.1 WNW 15 20 8 11 999.1 998.0 2.8
25/08:30am 9.8 7.1 9.0 95 0.4 WNW 13 20 7 11 999.1 998.0 2.2
25/08:00am 10.2 7.8 10.0 99 0.1 WSW 13 19 7 10 998.5 997.5 2.0
25/07:30am 10.1 6.3 9.9 99 0.1 SSW 20 28 11 15 998.2 997.2 2.0
25/07:00am 10.3 7.5 10.1 99 0.1 SW 15 20 8 11 998.7 997.6 0.4
25/06:30am 11.8 10.3 10.4 91 0.7 WSW 9 13 5 7 998.0 997.0 0.0
25/06:00am 11.5 10.5 11.0 97 0.3 NW 7 9 4 5 997.6 996.5 0.0
25/05:30am 11.6 9.2 11.4 99 0.1 WNW 15 20 8 11 997.4 996.3 0.0
25/05:00am 11.5 7.0 11.3 99 0.1 N 26 37 14 20 997.0 995.9 0.0
25/04:30am 11.1 7.6 10.9 99 0.1 N 20 28 11 15 997.2 996.1 0.0
25/04:00am 10.8 5.7 10.6 99 0.1 N 28 35 15 19 997.5 996.4 0.0
25/03:30am 10.7 5.6 10.5 99 0.1 N 28 41 15 22 997.6 996.5 0.0
25/03:00am 10.7 6.3 10.5 99 0.1 N 24 32 13 17 997.7 996.6 0.0
25/02:30am 10.8 7.2 10.5 98 0.2 N 20 33 11 18 998.0 997.0 0.0
25/02:00am 10.6 7.1 10.1 97 0.3 N 19 24 10 13 998.5 997.5 0.0
25/01:30am 10.9 6.0 10.0 94 0.5 N 26 32 14 17 999.1 998.0 0.0
25/01:00am 11.0 6.1 9.8 92 0.6 N 26 33 14 18 999.5 998.4 0.0
25/12:30am 11.3 7.3 9.0 86 1.2 N 20 28 11 15 999.8 998.8 0.0
25/12:00am 11.9 7.1 8.7 81 1.6 N 24 32 13 17 1000.1 999.1 0.0
 
Date/Time
EDT
Temp
°C
App
Temp
°C
Dew
Point
Rel
Hum
%
Delta-T
°C
Wind Press
QNH
hPa
Press
MSL
hPa
Rain
since 9 am
mm
Dir
 
Spd
km/h
Gust
km/h
Spd
kts
Gust
kts
24/11:30pm 12.0 6.4 8.7 80 1.7 N 28 39 15 21 1000.6 999.6 0.0
24/11:00pm 12.4 5.7 8.3 76 2.1 N 33 43 18 23 1000.7 999.7 0.0
24/10:30pm 13.0 8.1 8.3 73 2.4 N 24 37 13 20 1000.8 999.8 0.0
24/10:00pm 13.6 7.9 8.4 71 2.7 N 28 39 15 21 1000.8 999.8 0.0
24/09:30pm 14.4 8.4 8.6 68 3.0 N 30 43 16 23 1000.5 999.5 0.0
24/09:00pm 14.9 8.4 8.8 67 3.2 N 33 43 18 23 1000.1 999.1 0.0
24/08:50pm 15.2 8.9 8.9 66 3.3 N 32 50 17 27 999.8 998.8 0.0
24/08:30pm 15.7 8.4 8.9 64 3.6 N 37 50 20 27 999.5 998.4 0.0
24/08:22pm 15.9 9.6 8.9 63 3.7 N 32 50 17 27 999.3 998.2 0.0
24/08:00pm 16.7 9.1 8.9 60 4.1 N 39 50 21 27 999.2 998.1 0.0
24/07:30pm 17.4 9.3 8.8 57 4.5 N 41 54 22 29 999.0 997.9 0.0
24/07:04pm 18.4 11.8 8.7 53 5.1 N 33 52 18 28 998.8 997.7 0.0
24/07:00pm 18.3 10.5 8.3 52 5.3 N 39 52 21 28 998.7 997.6 0.0
24/06:30pm 19.1 12.1 8.4 50 5.7 N 35 48 19 26 998.8 997.7 0.0
24/06:15pm 19.4 12.7 8.1 48 6.0 N 33 52 18 28 998.8 997.7 0.0
24/06:00pm 19.7 12.8 8.7 49 5.9 N 35 50 19 27 998.9 997.8 0.0
24/05:43pm 20.0 12.9 8.0 46 6.3 N 35 54 19 29 999.0 997.9 0.0
24/05:30pm 19.5 12.7 7.9 47 6.1 N 33 48 18 26 999.4 998.3 0.0
24/05:00pm 19.9 12.0 7.9 46 6.4 N 39 54 21 29 999.7 998.6 0.0
24/04:49pm 20.0 12.5 8.0 46 6.3 N 37 56 20 30 999.8 998.8 0.0
24/04:30pm 20.5 12.7 8.2 45 6.5 N 39 52 21 28 999.9 998.9 0.0
24/04:00pm 20.0 12.0 7.4 44 6.6 N 39 52 21 28 1000.3 999.3 0.0
24/03:44pm 21.7 15.6 9.6 46 6.7 N 32 50 17 27 1000.4 999.4 0.0
24/03:30pm 20.9 14.1 7.9 43 6.9 N 33 48 18 26 1000.5 999.5 0.0
24/03:00pm 20.8 13.9 7.1 41 7.2 N 33 52 18 28 1001.0 999.9 0.0
24/02:53pm 20.6 13.8 7.6 43 6.8 N 33 52 18 28 1001.2 1000.1 0.0
24/02:30pm 20.9 14.4 8.2 44 6.8 N 32 48 17 26 1001.4 1000.3 0.0
24/02:00pm 19.9 12.2 5.5 39 7.3 N 35 46 19 25 1001.6 1000.5 0.0
24/01:30pm 20.5 13.7 6.8 41 7.1 N 32 43 17 23 1002.1 1001.1 0.0
24/01:00pm 19.9 14.0 7.6 45 6.5 N 28 41 15 22 1002.5 1001.5 0.0
24/12:30pm 18.3 10.8 6.5 46 6.0 N 35 46 19 25 1002.8 1001.8 0.0
24/12:00pm 18.7 11.6 9.5 55 5.0 N 37 52 20 28 1003.0 1002.0 0.0
24/11:30am 17.2 10.5 8.1 55 4.7 N 33 44 18 24 1003.3 1002.2 0.0
24/11:00am 17.4 10.6 9.3 59 4.3 NNE 35 48 19 26 1003.7 1002.7 0.0
24/10:30am 15.3 7.6 7.1 58 4.1 N 37 52 20 28 1004.2 1003.2 0.0
24/10:00am 14.5 8.6 9.1 70 2.8 N 30 46 16 25 1004.7 1003.7 0.0
24/09:30am 14.4 8.1 9.6 73 2.5 N 33 46 18 25 1004.8 1003.8 0.0
24/09:21am 14.4 8.9 9.2 71 2.7 N 28 46 15 25 1004.8 1003.8 0.0
24/09:00am 12.6 6.8 9.6 82 1.6 N 30 39 16 21 1004.9 1003.9 1.4
24/08:30am 13.2 9.4 9.8 80 1.8 NNE 20 28 11 15 1005.0 1004.0 1.4
24/08:00am 12.8 9.7 11.5 92 0.7 NNE 19 24 10 13 1005.2 1004.2 1.4
24/07:30am 11.8 9.5 11.6 99 0.1 NE 15 20 8 11 1005.3 1004.3 1.4
24/07:00am 10.5 8.6 10.5 100 0.0 NE 11 19 6 10 1005.3 1004.3 1.4
24/06:30am 10.5 8.6 10.5 100 0.0 NE 11 19 6 10 1005.2 1004.2 1.4
24/06:00am 10.6 8.0 10.6 100 0.0 NE 15 22 8 12 1005.4 1004.5 1.4
24/05:30am 10.6 7.6 10.6 100 0.0 ENE 17 24 9 13 1005.1 1004.1 1.4
24/05:00am 10.6 8.3 10.6 100 0.0 NE 13 20 7 11 1005.3 1004.3 1.4
24/04:30am 10.6 8.3 10.6 100 0.0 NE 13 20 7 11 1005.7 1004.7 1.4
24/04:00am 10.4 7.3 10.4 100 0.0 ENE 17 24 9 13 1006.2 1005.2 1.2
24/03:30am 10.2 7.1 10.2 100 0.0 ENE 17 22 9 12 1006.7 1005.7 1.2
24/03:00am 10.2 7.1 10.2 100 0.0 ENE 17 26 9 14 1006.8 1005.8 1.2
24/02:30am 10.3 6.8 10.3 100 0.0 ENE 19 35 10 19 1007.1 1006.1 1.2
24/02:00am 10.3 6.8 10.3 100 0.0 ENE 19 28 10 15 1007.2 1006.2 1.2
24/01:30am 10.5 7.5 10.5 100 0.0 ENE 17 33 9 18 1007.6 1006.7 1.2
24/01:00am 10.7 7.7 10.7 100 0.0 ENE 17 28 9 15 1007.6 1006.7 1.0
24/12:30am 11.0 8.5 11.0 100 0.0 ENE 15 24 8 13 1008.1 1007.1 0.8
24/12:00am 11.4 8.9 11.2 99 0.1 NE 15 26 8 14 1008.2 1007.2 0.2
 
Date/Time
EDT
Temp
°C
App
Temp
°C
Dew
Point
Rel
Hum
%
Delta-T
°C
Wind Press
QNH
hPa
Press
MSL
hPa
Rain
since 9 am
mm
Dir
 
Spd
km/h
Gust
km/h
Spd
kts
Gust
kts
23/11:30pm 11.9 10.0 11.7 99 0.1 ENE 13 19 7 10 1008.2 1007.2 0.2
23/11:00pm 12.4 11.1 11.3 93 0.6 ENE 9 13 5 7 1007.9 1006.9 0.0
23/10:30pm 12.3 11.1 11.5 95 0.4 ENE 9 13 5 7 1007.7 1006.8 0.0
23/10:00pm 12.0 10.4 10.2 89 0.9 ENE 9 13 5 7 1007.6 1006.7 0.0
23/09:30pm 12.9 11.2 5.8 62 3.4 N 4 9 2 5 1007.3 1006.4 0.0
23/09:00pm 13.7 10.6 5.6 58 3.9 W 11 17 6 9 1007.1 1006.1 0.0
23/08:30pm 14.3 10.4 5.4 55 4.3 W 15 24 8 13 1006.6 1005.6 0.0
23/08:00pm 15.0 11.1 5.5 53 4.6 WSW 15 22 8 12 1006.3 1005.3 0.0
23/07:30pm 15.7 11.6 6.4 54 4.6 WSW 17 28 9 15 1005.8 1004.8 0.0
23/07:00pm 16.9 13.0 7.3 53 4.9 WSW 17 28 9 15 1004.9 1003.9 0.0
23/06:30pm 18.2 13.2 8.2 52 5.3 WSW 24 35 13 19 1004.4 1003.4 0.0
23/06:00pm 20.2 16.1 8.5 47 6.3 WSW 20 32 11 17 1003.8 1002.8 0.0
23/05:30pm 20.9 16.0 8.5 45 6.7 WSW 24 37 13 20 1003.1 1002.1 0.0
23/05:00pm 21.5 17.3 8.1 42 7.2 W 20 33 11 18 1002.7 1001.7 0.0
23/04:30pm 21.4 16.6 9.0 45 6.7 WSW 24 32 13 17 1002.6 1001.6 0.0
23/04:00pm 22.3 17.4 9.8 45 7.0 WSW 26 35 14 19 1002.2 1001.2 0.0
23/03:30pm 22.5 17.6 10.0 45 7.0 W 26 41 14 22 1002.1 1001.1 0.0
23/03:00pm 23.7 20.1 11.7 47 6.9 WSW 22 33 12 18 1001.7 1000.7 0.0
23/02:30pm 23.4 20.7 13.6 54 5.8 WSW 20 30 11 16 1001.4 1000.3 0.0
23/02:00pm 22.4 18.4 11.8 51 6.1 W 24 39 13 21 1001.5 1000.4 0.0
23/01:30pm 23.1 19.2 12.1 50 6.4 WSW 24 39 13 21 1001.4 1000.3 0.0
23/01:00pm 23.3 20.1 12.0 49 6.6 W 20 33 11 18 1001.4 1000.3 0.0
23/12:30pm 22.6 19.1 13.4 56 5.4 WSW 24 43 13 23 1001.3 1000.2 0.0
23/12:00pm 22.9 19.5 12.5 52 6.1 W 22 33 12 18 1001.3 1000.2 0.0
23/11:30am 23.5 20.5 13.7 54 5.8 WSW 22 35 12 19 1001.0 999.9 0.0

Other Formats:

Comma delimited format used in spreadsheet applications
http://www.bom.gov.au/fwo/IDT60801/IDT60801.94960.axf

JavaScript Object Notation format (JSON) in row-major order
http://www.bom.gov.au/fwo/IDT60801/IDT60801.94960.json